Time;durP1;ratioP1;P1;durP2;ratioP2;P2;SDS_P1;SDS_P2;PMS_P1;PMS_P2;Temp;Humidity;BMP_temperature;BMP_pressure;BME280_temperature;BME280_humidity;BME280_pressure;Samples;Min_cycle;Max_cycle;Signal;HPM_P1;HPM_P2
2021/08/07 00:00:01;;;;;;;2.37;1.40;;;;;;;24.04;65.17;97242.91;5050324;28;20203;-69
2021/08/07 00:02:30;;;;;;;3.07;1.47;;;;;;;23.94;65.94;97245.03;5050778;28;20197;-69
2021/08/07 00:04:57;;;;;;;2.10;1.50;;;;;;;23.99;65.64;97242.19;5050796;28;20221;-69
2021/08/07 00:07:27;;;;;;;3.27;1.50;;;;;;;24.10;64.98;97240.84;5040871;28;20613;-69
2021/08/07 00:09:55;;;;;;;4.73;1.60;;;;;;;24.00;65.78;97251.97;5051081;28;20203;-69
2021/08/07 00:12:22;;;;;;;3.20;1.77;;;;;;;24.07;65.20;97250.47;5059033;28;20219;-69
2021/08/07 00:14:50;;;;;;;3.97;2.00;;;;;;;23.87;66.41;97259.03;5052085;28;20206;-69
2021/08/07 00:17:17;;;;;;;2.87;1.53;;;;;;;24.04;65.49;97244.81;5047359;28;20221;-69
2021/08/07 00:19:45;;;;;;;3.40;1.50;;;;;;;23.94;66.34;97239.56;5043739;28;20203;-69
2021/08/07 00:22:15;;;;;;;2.67;1.47;;;;;;;23.99;66.29;97228.56;5050996;28;20209;-69
2021/08/07 00:24:42;;;;;;;3.20;1.73;;;;;;;23.94;66.43;97225.94;5051108;28;20567;-69
2021/08/07 00:27:09;;;;;;;2.27;1.47;;;;;;;23.94;66.33;97226.75;5040254;28;20721;-70
2021/08/07 00:29:37;;;;;;;3.43;1.60;;;;;;;24.02;66.27;97214.34;5049506;28;20210;-69
2021/08/07 00:32:04;;;;;;;4.93;1.60;;;;;;;24.01;66.48;97210.00;5050708;28;20202;-69
2021/08/07 00:34:32;;;;;;;2.00;1.60;;;;;;;24.16;65.57;97215.09;5050861;28;20210;-69
2021/08/07 00:37:03;;;;;;;3.77;2.07;;;;;;;23.86;67.91;97221.19;5051912;28;20223;-69
2021/08/07 00:39:31;;;;;;;3.33;2.00;;;;;;;23.77;69.23;97233.91;5054282;28;20545;-69
2021/08/07 00:41:58;;;;;;;1.60;1.17;;;;;;;24.25;66.60;97232.34;5048110;28;20210;-70
2021/08/07 00:44:25;;;;;;;3.70;1.67;;;;;;;24.39;65.52;97233.13;5059937;28;20207;-69
2021/08/07 00:46:53;;;;;;;4.00;1.43;;;;;;;24.46;64.47;97225.31;5051127;28;20241;-69
2021/08/07 00:49:20;;;;;;;4.37;1.97;;;;;;;24.58;64.14;97218.22;5051887;28;20231;-70
2021/08/07 00:51:47;;;;;;;3.10;1.53;;;;;;;24.34;64.94;97214.16;5053829;28;20218;-69
2021/08/07 00:54:16;;;;;;;3.00;1.53;;;;;;;24.57;63.91;97222.06;5053402;28;20210;-69
2021/08/07 00:56:43;;;;;;;2.23;1.43;;;;;;;24.51;64.20;97217.84;5049206;28;20227;-69
2021/08/07 00:59:10;;;;;;;4.10;1.77;;;;;;;24.37;64.59;97221.72;5051268;28;20729;-69
2021/08/07 01:01:43;;;;;;;3.60;1.90;;;;;;;24.52;63.94;97229.56;5043765;28;20195;-69
2021/08/07 01:04:14;;;;;;;2.87;1.40;;;;;;;24.53;64.48;97223.00;5045868;28;21630;-69
2021/08/07 01:06:44;;;;;;;4.70;1.83;;;;;;;;;;5051086;28;20341;-69
2021/08/07 01:09:19;;;;;;;3.63;1.60;;;;;;;24.46;64.75;97211.69;5042247;28;20228;-69
2021/08/07 01:11:52;;;;;;;2.03;1.60;;;;;;;24.56;64.16;97212.25;5052569;28;20675;-69
2021/08/07 01:14:22;;;;;;;3.33;1.50;;;;;;;24.28;65.39;97215.38;5052178;28;20209;-69
2021/08/07 01:19:26;;;;;;;2.23;1.57;;;;;;;24.39;66.60;97205.84;5045568;28;20229;-69
2021/08/07 01:21:58;;;;;;;4.23;1.70;;;;;;;24.35;66.78;97205.66;5047746;28;20323;-69
2021/08/07 01:24:34;;;;;;;4.27;1.63;;;;;;;24.54;65.58;97189.13;5043459;28;20248;-69
2021/08/07 01:27:18;;;;;;;3.80;1.50;;;;;;;24.76;63.99;97195.44;5050374;28;20229;-69
2021/08/07 01:29:46;;;;;;;3.30;1.50;;;;;;;24.60;64.33;97193.38;5049439;28;20257;-69
2021/08/07 01:32:13;;;;;;;3.20;1.60;;;;;;;24.60;64.07;97196.09;5052077;28;20206;-69
2021/08/07 01:34:41;;;;;;;3.60;1.47;;;;;;;24.51;65.68;97187.81;5052942;28;20213;-68
2021/08/07 01:37:09;;;;;;;2.30;1.67;;;;;;;24.58;64.83;97198.31;5048052;28;20232;-69
2021/08/07 01:39:43;;;;;;;4.60;1.80;;;;;;;24.37;66.23;97178.09;5053279;28;20672;-68
2021/08/07 01:42:10;;;;;;;2.87;1.70;;;;;;;24.60;64.81;97185.19;5047291;28;20659;-69
2021/08/07 01:44:38;;;;;;;4.83;2.00;;;;;;;24.66;64.66;97187.50;5049955;28;20214;-70
2021/08/07 01:47:09;;;;;;;2.47;1.63;;;;;;;24.45;65.97;97169.16;5045553;28;20223;-69
2021/08/07 01:49:44;;;;;;;3.23;1.70;;;;;;;24.57;65.48;97166.69;5052493;28;20209;-69
2021/08/07 01:52:17;;;;;;;3.50;1.80;;;;;;;24.37;66.45;97169.91;5043780;28;20206;-69
2021/08/07 01:54:48;;;;;;;4.23;2.00;;;;;;;24.42;65.73;97154.22;5043304;28;20214;-69
2021/08/07 01:57:21;;;;;;;3.73;1.80;;;;;;;24.85;64.00;97170.91;5051001;28;20240;-69
2021/08/07 01:59:50;;;;;;;4.20;2.00;;;;;;;24.49;65.04;97175.59;5052443;28;20206;-69
2021/08/07 02:02:19;;;;;;;4.20;2.10;;;;;;;24.73;64.43;97176.16;5046864;28;20209;-69
2021/08/07 02:04:46;;;;;;;4.43;2.10;;;;;;;24.83;63.60;97173.16;5045783;28;20624;-69
2021/08/07 02:07:13;;;;;;;4.47;2.10;;;;;;;24.74;64.24;97177.75;5046723;28;20233;-69
2021/08/07 02:09:42;;;;;;;5.03;2.07;;;;;;;24.86;63.65;97180.72;5047237;28;20201;-70
2021/08/07 02:12:09;;;;;;;6.23;1.93;;;;;;;24.89;63.08;97172.69;5048711;28;20207;-69
2021/08/07 02:14:39;;;;;;;4.67;1.67;;;;;;;25.01;62.51;97172.94;5052106;28;20212;-69
2021/08/07 02:17:08;;;;;;;3.10;1.90;;;;;;;24.92;62.29;97174.00;5050372;28;20223;-69
2021/08/07 02:19:38;;;;;;;5.40;1.90;;;;;;;24.89;63.18;97163.72;5051579;28;20569;-67
2021/08/07 02:22:07;;;;;;;5.03;1.77;;;;;;;25.09;62.04;97174.91;5052114;28;20696;-67
2021/08/07 02:24:35;;;;;;;5.33;2.37;;;;;;;25.13;62.05;97169.63;5051135;28;20282;-68
2021/08/07 02:27:03;;;;;;;3.67;1.83;;;;;;;25.00;62.65;97162.34;5048982;28;20227;-68
2021/08/07 02:29:30;;;;;;;4.20;1.90;;;;;;;25.12;62.36;97165.28;5052086;28;20657;-68
2021/08/07 02:31:58;;;;;;;4.30;1.97;;;;;;;25.27;61.67;97162.16;5048373;28;20215;-68
2021/08/07 02:34:28;;;;;;;2.70;1.60;;;;;;;25.18;60.77;97161.31;5052786;28;20214;-69
2021/08/07 02:36:56;;;;;;;5.63;1.90;;;;;;;25.15;60.90;97154.56;5046517;28;20230;-69
2021/08/07 02:39:24;;;;;;;3.27;1.63;;;;;;;25.08;60.82;97145.97;5054464;28;20738;-68
2021/08/07 02:41:51;;;;;;;3.97;1.87;;;;;;;24.97;61.17;97155.56;5051168;28;20286;-68
2021/08/07 02:44:19;;;;;;;5.63;2.00;;;;;;;24.83;62.29;97149.38;5051893;28;20667;-68
2021/08/07 02:46:47;;;;;;;3.30;2.10;;;;;;;24.93;62.16;97151.84;5049775;28;20239;-68
2021/08/07 02:49:14;;;;;;;4.13;2.07;;;;;;;24.98;61.86;97159.91;5051004;28;20209;-69
2021/08/07 02:51:43;;;;;;;4.43;2.20;;;;;;;24.39;65.45;97145.84;5049705;28;20206;-69
2021/08/07 02:54:11;;;;;;;2.87;1.67;;;;;;;24.50;65.77;97148.03;5045881;28;20294;-69
2021/08/07 02:56:38;;;;;;;4.03;1.90;;;;;;;24.34;66.98;97135.88;5043595;28;20203;-70
2021/08/07 02:59:06;;;;;;;4.90;1.80;;;;;;;24.78;63.43;97137.81;5046952;28;20222;-69
2021/08/07 03:01:33;;;;;;;3.63;1.80;;;;;;;24.24;67.56;97127.94;5050671;28;20206;-70
2021/08/07 03:04:00;;;;;;;4.63;1.93;;;;;;;24.21;66.63;97133.19;5047156;28;20657;-70
2021/08/07 03:06:28;;;;;;;3.10;1.50;;;;;;;24.56;64.05;97135.03;5048753;28;20202;-69
2021/08/07 03:08:56;;;;;;;5.73;1.80;;;;;;;23.97;68.05;97124.50;5048189;28;20206;-69
2021/08/07 03:11:24;;;;;;;4.03;1.50;;;;;;;22.92;71.14;97122.00;5047559;28;20656;-70
2021/08/07 03:13:51;;;;;;;3.63;1.70;;;;;;;24.28;63.08;97131.63;5048073;28;20206;-70
2021/08/07 03:16:18;;;;;;;5.03;1.60;;;;;;;24.18;62.63;97131.88;5050862;28;20213;-70
2021/08/07 03:18:46;;;;;;;2.53;1.50;;;;;;;23.88;65.90;97126.31;5048929;28;20230;-69
2021/08/07 03:21:13;;;;;;;5.37;2.07;;;;;;;24.42;61.98;97126.94;5049945;28;20234;-70
2021/08/07 03:23:40;;;;;;;2.67;1.57;;;;;;;24.22;62.35;97135.59;5050164;28;20211;-70
2021/08/07 03:26:10;;;;;;;7.17;1.83;;;;;;;24.51;61.02;97136.00;5049329;28;20210;-70
2021/08/07 03:28:37;;;;;;;3.00;1.70;;;;;;;24.37;62.23;97139.91;5047139;28;20231;-70
2021/08/07 03:31:05;;;;;;;4.83;1.80;;;;;;;24.36;61.96;97141.00;5048780;28;20207;-70
2021/08/07 03:33:33;;;;;;;3.77;1.70;;;;;;;24.28;62.48;97133.56;5051587;28;20199;-70
2021/08/07 03:36:00;;;;;;;2.00;1.70;;;;;;;24.24;63.09;97124.41;5049371;28;20214;-69
2021/08/07 03:38:27;;;;;;;4.80;1.80;;;;;;;24.15;63.32;97131.69;5047942;28;20226;-70
2021/08/07 03:40:55;;;;;;;2.43;1.83;;;;;;;24.10;63.75;97129.09;5047570;28;20217;-70
2021/08/07 03:43:24;;;;;;;5.40;1.70;;;;;;;23.96;64.75;97123.69;5050194;28;20212;-70
2021/08/07 03:45:51;;;;;;;1.93;1.47;;;;;;;23.98;64.44;97112.47;5045921;28;20210;-69
2021/08/07 03:48:18;;;;;;;5.17;2.30;;;;;;;23.87;64.90;97111.06;5048839;28;21828;-70
2021/08/07 03:50:46;;;;;;;3.37;1.80;;;;;;;23.95;64.47;97116.63;5046896;28;20211;-69
2021/08/07 03:53:13;;;;;;;2.40;1.70;;;;;;;23.90;64.82;97113.19;5050634;28;20559;-69
2021/08/07 03:55:40;;;;;;;5.23;2.10;;;;;;;23.64;67.85;97098.50;5048976;28;20590;-69
2021/08/07 03:58:08;;;;;;;2.77;1.60;;;;;;;23.70;66.73;97089.91;5046801;28;20231;-68
2021/08/07 04:00:37;;;;;;;5.03;2.10;;;;;;;23.73;65.95;97099.38;5044438;28;20206;-67
2021/08/07 04:03:05;;;;;;;2.77;1.60;;;;;;;23.53;66.79;97094.38;5043886;28;20213;-69
2021/08/07 04:05:32;;;;;;;7.40;3.40;;;;;;;23.69;66.63;97096.47;5045718;28;20210;-70
2021/08/07 04:08:04;;;;;;;6.57;2.80;;;;;;;23.45;67.50;97089.63;5048559;28;20222;-69
2021/08/07 04:10:31;;;;;;;4.70;1.70;;;;;;;23.41;69.39;97092.16;5048705;28;20202;-70
2021/08/07 04:12:59;;;;;;;5.03;2.30;;;;;;;23.16;69.88;97095.38;5054922;28;20293;-70
2021/08/07 04:15:26;;;;;;;7.13;2.13;;;;;;;23.63;66.84;97089.53;5054630;28;20225;-69
2021/08/07 04:17:55;;;;;;;5.73;2.23;;;;;;;23.84;65.61;97104.31;5049724;28;20237;-70
2021/08/07 04:20:22;;;;;;;2.73;1.93;;;;;;;24.01;65.08;97099.03;5049258;28;20215;-70
2021/08/07 04:22:50;;;;;;;5.07;1.80;;;;;;;24.05;65.05;97099.22;5051471;28;20602;-69
2021/08/07 04:25:17;;;;;;;5.20;2.50;;;;;;;23.84;67.01;97101.59;5041578;28;20210;-70
2021/08/07 04:27:44;;;;;;;3.63;2.10;;;;;;;24.05;66.23;97096.50;5043125;28;20231;-70
2021/08/07 04:30:12;;;;;;;4.03;2.33;;;;;;;23.96;67.22;97092.91;5054048;28;20297;-69
2021/08/07 04:32:40;;;;;;;3.73;1.97;;;;;;;24.13;64.10;97099.31;5045926;28;20198;-70
2021/08/07 04:35:10;;;;;;;4.63;1.70;;;;;;;24.21;63.59;97093.09;5048939;28;20208;-70
2021/08/07 04:37:51;;;;;;;6.03;2.10;;;;;;;24.24;63.86;97081.59;5046475;28;20714;-70
2021/08/07 04:40:19;;;;;;;4.93;2.33;;;;;;;23.84;66.13;97076.25;5044917;28;20228;-69
2021/08/07 04:42:47;;;;;;;4.80;2.20;;;;;;;24.22;63.84;97075.63;5054206;28;20212;-70
2021/08/07 04:45:14;;;;;;;3.20;1.70;;;;;;;23.70;65.73;97057.22;5044605;28;20209;-70
2021/08/07 04:47:52;;;;;;;3.57;1.90;;;;;;;24.41;62.58;97064.50;5051408;28;20740;-70
2021/08/07 04:50:20;;;;;;;3.07;1.73;;;;;;;24.62;61.51;97074.63;5045617;28;20209;-70
2021/08/07 04:52:48;;;;;;;3.97;1.93;;;;;;;24.41;62.19;97078.97;5054052;28;20302;-70
2021/08/07 04:55:15;;;;;;;5.57;1.90;;;;;;;24.75;61.09;97083.84;5052816;28;20210;-70
2021/08/07 04:57:42;;;;;;;4.40;2.40;;;;;;;24.61;60.91;97089.38;5050150;28;20233;-70
2021/08/07 05:00:11;;;;;;;5.77;2.30;;;;;;;25.11;59.12;97089.94;5047913;28;20228;-70
2021/08/07 05:02:38;;;;;;;5.43;1.93;;;;;;;25.15;57.62;97090.91;5052487;28;20204;-70
2021/08/07 05:05:06;;;;;;;2.93;1.37;;;;;;;24.47;59.08;97104.19;5047980;28;20202;-70
2021/08/07 05:07:35;;;;;;;1.90;1.27;;;;;;;24.92;56.41;97113.94;5047378;28;20727;-72
2021/08/07 05:10:03;;;;;;;5.00;1.50;;;;;;;24.73;57.06;97105.97;5052724;28;20210;-70
2021/08/07 05:12:30;;;;;;;2.73;1.30;;;;;;;25.45;54.10;97109.22;5072193;22;20227;-71
2021/08/07 05:14:58;;;;;;;2.63;1.37;;;;;;;25.13;54.96;97107.63;5050630;28;20686;-70
2021/08/07 05:17:26;;;;;;;2.53;1.40;;;;;;;25.32;54.52;97104.66;5053750;28;20210;-70
2021/08/07 05:19:53;;;;;;;2.90;1.20;;;;;;;25.08;55.36;97101.50;5050825;28;20222;-73
2021/08/07 05:22:21;;;;;;;4.27;1.30;;;;;;;24.86;55.14;97098.81;5047908;28;20233;-73
2021/08/07 05:24:50;;;;;;;1.90;1.40;;;;;;;25.54;53.53;97090.91;5050344;28;20209;-70
2021/08/07 05:27:17;;;;;;;3.87;1.60;;;;;;;25.58;52.25;97091.91;5049193;28;20203;-73
2021/08/07 05:29:45;;;;;;;2.67;1.10;;;;;;;26.00;50.34;97085.69;5049845;28;20219;-71
2021/08/07 05:32:12;;;;;;;2.07;1.43;;;;;;;26.33;49.91;97092.25;5049851;28;20695;-71
2021/08/07 05:34:39;;;;;;;3.47;1.53;;;;;;;26.15;49.47;97096.94;5049695;28;20206;-72
2021/08/07 05:37:07;;;;;;;4.80;1.43;;;;;;;25.78;50.98;97086.59;5050974;28;20232;-70
2021/08/07 05:39:34;;;;;;;2.10;1.10;;;;;;;26.64;49.93;97095.63;5053758;28;20224;-71
2021/08/07 05:42:03;;;;;;;2.77;1.40;;;;;;;26.17;52.12;97081.03;5051495;28;20340;-72
2021/08/07 05:44:31;;;;;;;2.30;1.30;;;;;;;26.99;50.00;97097.13;5053292;28;20206;-72
2021/08/07 05:46:58;;;;;;;3.57;1.40;;;;;;;27.36;48.34;97099.13;5053824;28;20218;-73
2021/08/07 05:49:25;;;;;;;2.97;1.30;;;;;;;27.42;47.94;97100.53;5055215;28;20205;-77
2021/08/07 05:51:53;;;;;;;3.10;1.40;;;;;;;27.15;46.45;97109.97;5048560;28;20562;-77
2021/08/07 05:54:21;;;;;;;2.37;1.20;;;;;;;26.24;48.35;97119.63;5053851;28;20653;-78
2021/08/07 05:56:48;;;;;;;3.17;1.07;;;;;;;27.39;45.16;97128.59;5050649;28;20210;-74
2021/08/07 05:59:17;;;;;;;2.50;1.50;;;;;;;27.10;47.85;97112.88;5052892;28;20693;-72
2021/08/07 06:01:44;;;;;;;3.27;1.10;;;;;;;27.25;45.70;97134.28;5049009;28;20321;-75
2021/08/07 06:04:11;;;;;;;1.50;1.17;;;;;;;27.78;43.98;97137.28;5052170;28;20300;-76
2021/08/07 06:06:39;;;;;;;8.40;1.40;;;;;;;27.71;44.79;97123.25;5053658;28;20293;-72
2021/08/07 06:09:06;;;;;;;2.67;1.27;;;;;;;27.85;43.07;97128.53;5052864;28;20213;-74
2021/08/07 06:11:33;;;;;;;1.47;0.93;;;;;;;27.79;43.76;97125.19;5049191;28;20601;-72
2021/08/07 06:14:01;;;;;;;4.00;1.23;;;;;;;27.69;43.86;97119.25;5052510;28;20213;-72
2021/08/07 06:16:30;;;;;;;3.40;1.20;;;;;;;28.00;43.04;97125.19;5059191;28;20213;-73
2021/08/07 06:18:57;;;;;;;4.17;1.33;;;;;;;27.86;43.97;97117.22;5053048;28;20225;-74
2021/08/07 06:21:24;;;;;;;2.03;1.13;;;;;;;28.82;41.40;97125.13;5050349;28;20870;-77
2021/08/07 06:23:51;;;;;;;3.80;1.10;;;;;;;29.13;40.47;97120.78;5050930;28;20206;-83
2021/08/07 06:26:19;;;;;;;4.07;1.10;;;;;;;28.58;42.21;97109.38;5045338;28;20220;-77
2021/08/07 06:28:46;;;;;;;1.73;1.20;;;;;;;28.23;42.63;97116.28;5049557;28;20298;-76
2021/08/07 06:31:14;;;;;;;4.93;1.27;;;;;;;29.40;40.02;97113.84;5049493;28;20241;-73
2021/08/07 06:33:42;;;;;;;4.87;1.50;;;;;;;29.63;38.25;97099.31;5049701;28;20206;-73
2021/08/07 06:36:10;;;;;;;3.03;1.10;;;;;;;29.05;38.63;97102.47;5052144;28;20212;-73
2021/08/07 06:38:37;;;;;;;1.63;1.03;;;;;;;30.17;36.44;97102.56;5053179;28;20203;-73
2021/08/07 06:41:05;;;;;;;1.70;0.77;;;;;;;29.52;36.69;97100.06;5050592;28;20250;-73
2021/08/07 06:43:32;;;;;;;4.20;0.80;;;;;;;27.68;40.09;97092.97;5051851;28;20207;-75
2021/08/07 06:46:00;;;;;;;2.27;1.13;;;;;;;28.74;38.80;97096.63;5050342;28;20216;-76
2021/08/07 06:48:27;;;;;;;3.60;1.20;;;;;;;28.64;38.46;97105.28;5051688;28;20454;-73
2021/08/07 06:50:56;;;;;;;2.53;1.00;;;;;;;28.91;38.37;97101.94;5051302;28;20214;-72
2021/08/07 06:53:23;;;;;;;3.40;0.93;;;;;;;29.41;37.44;97107.19;5044038;28;20208;-72
2021/08/07 06:55:51;;;;;;;3.57;1.00;;;;;;;28.19;41.18;97100.84;5051504;28;20207;-71
2021/08/07 06:58:18;;;;;;;2.73;0.83;;;;;;;29.37;38.37;97103.50;5048720;28;20204;-74
2021/08/07 07:00:45;;;;;;;1.47;0.90;;;;;;;28.46;39.81;97081.91;5053690;28;20238;-75
2021/08/07 07:03:13;;;;;;;1.93;1.10;;;;;;;29.75;37.51;97077.28;5050355;28;20682;-73
2021/08/07 07:05:40;;;;;;;2.77;1.20;;;;;;;30.08;36.89;97085.34;5048791;28;20215;-74
2021/08/07 07:08:09;;;;;;;3.23;1.10;;;;;;;29.92;36.72;97096.28;5051837;28;20208;-76
2021/08/07 07:10:37;;;;;;;2.80;0.90;;;;;;;29.34;38.12;97102.25;5054673;28;20199;-80
2021/08/07 07:13:04;;;;;;;2.30;0.97;;;;;;;29.63;37.19;97112.25;5049681;28;20589;-73
2021/08/07 07:15:32;;;;;;;2.23;1.20;;;;;;;28.33;40.11;97098.63;5053267;28;20196;-80
2021/08/07 07:17:59;;;;;;;2.33;1.13;;;;;;;28.45;40.98;97109.69;5054774;28;20243;-79
2021/08/07 07:20:26;;;;;;;4.27;1.00;;;;;;;29.34;38.20;97109.72;5048395;28;20326;-77
2021/08/07 07:22:54;;;;;;;2.40;1.17;;;;;;;28.58;39.64;97117.63;5052869;28;20578;-79
2021/08/07 07:25:22;;;;;;;4.07;1.00;;;;;;;29.42;37.09;97126.09;5054138;28;20208;-75
2021/08/07 07:27:50;;;;;;;1.53;0.90;;;;;;;29.50;37.35;97116.91;5050585;28;20208;-71
2021/08/07 07:30:18;;;;;;;1.60;1.00;;;;;;;29.80;37.23;97120.28;5046240;28;20651;-74
2021/08/07 07:32:45;;;;;;;2.47;1.20;;;;;;;28.34;39.57;97131.25;5049651;28;20316;-73
2021/08/07 07:35:13;;;;;;;4.10;1.30;;;;;;;29.92;37.16;97123.00;5053870;28;20223;-77
2021/08/07 07:37:40;;;;;;;2.40;1.00;;;;;;;29.01;37.57;97119.97;5051890;28;20198;-75
2021/08/07 07:40:10;;;;;;;1.90;1.13;;;;;;;29.86;37.32;97113.38;5053028;28;20205;-73
2021/08/07 07:42:39;;;;;;;1.53;0.93;;;;;;;30.37;36.29;97109.84;5050306;28;20690;-75
2021/08/07 07:45:08;;;;;;;2.43;1.20;;;;;;;30.56;35.84;97112.75;5055473;28;20208;-77
2021/08/07 07:47:35;;;;;;;2.53;0.90;;;;;;;31.19;33.65;97122.78;5049728;28;20204;-73
2021/08/07 07:50:02;;;;;;;2.35;0.90;;;;;;;31.87;33.18;97124.16;5055330;28;20607;-82
2021/08/07 07:52:30;;;;;;;2.05;1.00;;;;;;;31.19;33.81;97115.31;5049654;28;20256;-72
2021/08/07 07:55:00;;;;;;;4.30;1.20;;;;;;;30.57;34.75;97114.34;5058688;28;20200;-73
2021/08/07 07:57:27;;;;;;;2.70;1.00;;;;;;;30.83;34.86;97103.69;5051088;28;20202;-75
2021/08/07 07:59:56;;;;;;;2.08;1.00;;;;;;;31.76;33.41;97117.53;5051127;28;20276;-74
2021/08/07 08:02:23;;;;;;;4.40;1.10;;;;;;;30.16;36.43;97106.47;5047464;28;20253;-72
2021/08/07 08:04:50;;;;;;;2.28;1.05;;;;;;;31.50;34.06;97095.22;5050768;28;20669;-72
2021/08/07 08:07:17;;;;;;;3.20;1.00;;;;;;;31.72;33.89;97086.31;5040035;28;20202;-71
2021/08/07 08:09:45;;;;;;;4.35;1.02;;;;;;;29.95;36.16;97076.31;5051997;28;20202;-71
2021/08/07 08:12:12;;;;;;;2.22;1.10;;;;;;;28.90;39.67;97056.41;5048999;28;20256;-76
2021/08/07 08:14:39;;;;;;;2.17;0.85;;;;;;;30.44;36.65;97063.22;5051152;28;20255;-76
2021/08/07 08:17:08;;;;;;;2.55;1.35;;;;;;;30.42;35.78;97060.03;5048936;28;20210;-75
2021/08/07 08:19:36;;;;;;;1.45;1.00;;;;;;;31.00;34.22;97062.00;5053310;28;20238;-77
2021/08/07 08:22:04;;;;;;;1.95;0.90;;;;;;;30.94;33.75;97068.94;5041772;28;20229;-77
2021/08/07 08:24:32;;;;;;;1.65;1.15;;;;;;;31.89;32.35;97081.22;5049219;28;20206;-79
2021/08/07 08:26:59;;;;;;;1.95;1.00;;;;;;;31.03;33.48;97067.63;5048959;28;20206;-75
2021/08/07 08:29:26;;;;;;;8.05;1.70;;;;;;;32.19;31.61;97073.19;5050966;28;20202;-79
2021/08/07 08:31:53;;;;;;;1.77;1.10;;;;;;;32.90;30.71;97079.00;5049265;28;20225;-77
2021/08/07 08:34:22;;;;;;;2.55;1.00;;;;;;;32.35;31.57;97071.19;5050914;28;20202;-76
2021/08/07 08:36:49;;;;;;;2.05;1.27;;;;;;;31.75;32.35;97049.72;5052257;28;20203;-76
2021/08/07 08:39:17;;;;;;;0.85;0.70;;;;;;;29.75;36.03;97029.72;5052667;28;20204;-77
2021/08/07 08:41:44;;;;;;;3.00;1.20;;;;;;;30.15;36.82;97036.06;5050436;28;20733;-78
2021/08/07 08:44:12;;;;;;;3.35;1.23;;;;;;;31.13;34.65;97047.00;5051228;28;20201;-77
2021/08/07 08:46:41;;;;;;;3.97;1.20;;;;;;;31.48;34.22;97042.38;5050972;28;20198;-77
2021/08/07 08:49:09;;;;;;;3.83;1.10;;;;;;;32.40;31.79;97052.34;5051505;28;20217;-78
2021/08/07 08:51:38;;;;;;;1.95;0.90;;;;;;;31.69;32.33;97063.00;5049192;28;20238;-78
2021/08/07 08:54:06;;;;;;;3.70;1.20;;;;;;;31.22;34.14;97048.44;5051461;28;20213;-78
2021/08/07 08:56:34;;;;;;;5.18;1.00;;;;;;;30.68;34.83;97044.66;5051434;28;20202;-77
2021/08/07 08:59:02;;;;;;;1.55;1.05;;;;;;;32.27;32.95;97050.91;5054619;28;20206;-78
2021/08/07 09:01:30;;;;;;;3.90;1.05;;;;;;;32.55;32.00;97050.66;5053060;28;20225;-78
2021/08/07 09:03:58;;;;;;;3.13;1.27;;;;;;;31.22;34.47;97029.13;5054340;28;20213;-77
2021/08/07 09:06:25;;;;;;;2.55;1.35;;;;;;;31.42;35.50;97035.53;5054517;28;20202;-78
2021/08/07 09:09:03;;;;;;;1.95;0.90;;;;;;;31.36;35.13;97032.25;5055294;28;20206;-79
2021/08/07 09:11:30;;;;;;;5.30;1.45;;;;;;;31.52;32.69;97051.53;5057419;28;20698;-78
2021/08/07 09:14:18;;;;;;;1.58;0.90;;;;;;;31.97;33.28;97047.06;5052726;28;20212;-78
2021/08/07 09:17:18;;;;;;;4.72;1.00;;;;;;;32.45;32.90;97048.50;5052364;28;20662;-78
2021/08/07 09:19:51;;;;;;;3.50;1.05;;;;;;;32.34;33.69;97050.25;5049758;28;20206;-78
2021/08/07 09:22:20;;;;;;;5.07;1.38;;;;;;;32.38;33.28;97056.66;5047685;28;20217;-78
2021/08/07 09:25:05;;;;;;;2.20;1.20;;;;;;;32.79;31.38;97058.66;5055399;28;20221;-78
2021/08/07 09:27:33;;;;;;;1.95;1.10;;;;;;;32.87;31.80;97047.38;5048379;28;20190;-77
2021/08/07 09:30:02;;;;;;;1.70;1.00;;;;;;;33.33;30.97;97056.47;5054575;28;20293;-78
2021/08/07 09:32:44;;;;;;;2.50;1.20;;;;;;;33.50;30.98;97053.97;5051510;28;20290;-78
2021/08/07 09:35:13;;;;;;;1.23;1.02;;;;;;;33.10;30.43;97063.97;5053761;28;20255;-79
2021/08/07 09:37:40;;;;;;;3.28;1.02;;;;;;;32.91;30.87;97066.78;5054169;28;20294;-77
2021/08/07 09:40:11;;;;;;;2.42;1.05;;;;;;;31.66;33.34;97057.38;5054104;28;20595;-77
2021/08/07 09:42:51;;;;;;;2.58;1.20;;;;;;;33.09;31.28;97060.38;5052509;28;20222;-78
2021/08/07 09:45:19;;;;;;;2.97;1.20;;;;;;;31.56;33.66;97055.97;5054298;28;20194;-77
2021/08/07 09:47:57;;;;;;;3.00;1.23;;;;;;;32.19;31.66;97062.91;5054200;28;20228;-77
2021/08/07 09:50:26;;;;;;;3.58;1.33;;;;;;;32.46;32.40;97073.00;5047541;28;20204;-77
2021/08/07 09:52:54;;;;;;;1.88;1.08;;;;;;;32.17;32.77;97086.56;5052095;28;20236;-76
2021/08/07 09:55:23;;;;;;;2.42;1.27;;;;;;;31.28;33.50;97104.94;5053066;28;20574;-76
2021/08/07 09:58:02;;;;;;;1.75;1.00;;;;;;;31.57;33.94;97103.69;5055796;28;20297;-77
2021/08/07 10:00:41;;;;;;;4.53;1.30;;;;;;;30.61;35.90;97113.28;5043179;28;20210;-76
2021/08/07 10:03:16;;;;;;;3.97;1.20;;;;;;;30.59;37.53;97115.63;5051649;28;20209;-76
2021/08/07 10:05:44;;;;;;;3.15;1.00;;;;;;;30.31;38.30;97119.50;5055501;28;20197;-76
2021/08/07 10:08:11;;;;;;;2.47;1.20;;;;;;;30.20;38.85;97110.91;5053103;28;20232;-76
2021/08/07 10:10:44;;;;;;;3.58;1.60;;;;;;;30.36;40.21;97109.03;5047849;28;20620;-76
2021/08/07 10:13:12;;;;;;;6.40;2.20;;;;;;;29.91;45.11;97080.13;5052792;28;20192;-77
2021/08/07 10:15:41;;;;;;;4.80;1.60;;;;;;;29.69;47.18;97066.88;5053147;28;20568;-76
2021/08/07 10:18:09;;;;;;;5.93;1.40;;;;;;;28.19;57.18;97027.56;5052661;28;20208;-77
2021/08/07 10:20:38;;;;;;;2.63;1.50;;;;;;;28.60;57.45;97024.75;5053381;28;20215;-78
2021/08/07 10:23:06;;;;;;;3.03;1.63;;;;;;;29.17;56.01;97019.22;5050921;28;20211;-79
2021/08/07 10:25:35;;;;;;;3.63;1.23;;;;;;;28.73;58.69;97031.06;5047194;28;20233;-77
2021/08/07 10:28:05;;;;;;;3.97;1.73;;;;;;;28.55;62.04;97029.66;5052403;28;20963;-77
2021/08/07 10:30:33;;;;;;;3.03;1.43;;;;;;;28.23;61.42;97030.44;5046776;28;20198;-76
2021/08/07 10:33:02;;;;;;;5.07;1.73;;;;;;;27.55;68.03;97015.31;5050081;28;20236;-79
2021/08/07 10:35:31;;;;;;;2.50;1.57;;;;;;;27.29;69.18;97008.41;5052690;28;20228;-78
2021/08/07 10:37:59;;;;;;;4.47;1.87;;;;;;;28.10;66.38;97009.56;5053293;28;20292;-78
2021/08/07 10:40:27;;;;;;;4.83;1.40;;;;;;;28.09;64.99;97016.19;5053023;28;20222;-78
2021/08/07 10:42:56;;;;;;;5.33;1.57;;;;;;;27.88;62.37;97012.69;5050522;28;20229;-78
2021/08/07 10:45:25;;;;;;;3.63;1.27;;;;;;;27.35;58.88;97007.88;5052893;28;20202;-79
2021/08/07 10:47:53;;;;;;;3.97;1.57;;;;;;;27.73;65.58;97018.75;5052805;28;20206;-81
2021/08/07 10:50:37;;;;;;;2.87;1.60;;;;;;;27.90;65.20;97007.66;5052634;28;20201;-76
2021/08/07 10:53:08;;;;;;;3.77;1.90;;;;;;;27.66;69.03;97000.06;5050223;28;20202;-78
2021/08/07 10:55:53;;;;;;;3.57;1.57;;;;;;;27.44;70.14;97008.63;5046853;28;20198;-75
2021/08/07 10:58:42;;;;;;;3.27;1.50;;;;;;;27.04;69.84;97014.78;5052839;28;20198;-76
2021/08/07 11:01:31;;;;;;;3.67;1.80;;;;;;;27.67;69.39;97028.31;5050266;28;20234;-77
2021/08/07 11:04:13;;;;;;;3.97;1.70;;;;;;;27.60;68.66;97017.88;5051748;28;20248;-77
2021/08/07 11:07:05;;;;;;;2.87;1.50;;;;;;;27.48;67.67;97012.31;5047306;28;20190;-77
2021/08/07 11:09:37;;;;;;;5.50;1.70;;;;;;;26.74;73.66;97015.88;5041937;28;20202;-77
2021/08/07 11:12:19;;;;;;;4.50;1.90;;;;;;;26.89;73.64;97012.59;5050001;28;20652;-78
2021/08/07 11:14:51;;;;;;;3.43;1.70;;;;;;;26.02;77.89;96995.94;5065005;22;20229;-74
2021/08/07 11:17:35;;;;;;;4.40;1.73;;;;;;;26.81;74.92;97018.94;5062478;28;20672;-72
2021/08/07 11:20:05;;;;;;;4.63;1.90;;;;;;;26.72;71.12;97020.91;5070731;28;20216;-72
2021/08/07 11:23:09;;;;;;;4.27;2.00;;;;;;;26.01;74.55;97022.50;5071247;28;20201;-72
2021/08/07 11:26:06;;;;;;;2.30;1.70;;;;;;;26.84;72.45;97037.44;5061349;28;20226;-71
2021/08/07 11:28:35;;;;;;;3.77;1.63;;;;;;;26.50;72.53;97034.78;5071137;28;20288;-72
2021/08/07 11:31:22;;;;;;;3.50;2.27;;;;;;;27.14;72.66;97047.28;5071578;28;20201;-74
2021/08/07 11:34:23;;;;;;;8.50;2.63;;;;;;;26.84;71.87;97042.91;5067844;28;20205;-73
2021/08/07 11:37:20;;;;;;;3.70;2.00;;;;;;;26.16;75.73;97046.59;5067410;28;20208;-74
2021/08/07 11:40:09;;;;;;;3.30;2.20;;;;;;;26.67;76.55;97054.75;5071035;28;20249;-74
2021/08/07 11:42:39;;;;;;;4.73;2.07;;;;;;;26.48;76.19;97050.72;5071173;28;20224;-73
2021/08/07 11:45:15;;;;;;;4.27;2.10;;;;;;;26.83;73.72;97060.47;5066256;28;20225;-73
2021/08/07 11:47:47;;;;;;;3.33;1.83;;;;;;;26.41;77.45;97059.41;5075539;28;20223;-73